createdAt,value
2017-12-21T00:00:14.975Z,1028.06
2017-12-21T00:00:55.508Z,1028.08
2017-12-21T00:01:36.044Z,1028.09
2017-12-21T00:02:16.574Z,1028.09
2017-12-21T00:02:57.101Z,1028.13
2017-12-21T00:03:37.632Z,1028.09
2017-12-21T00:04:18.157Z,1028.1
2017-12-21T00:04:58.700Z,1028.06
2017-12-21T00:05:39.223Z,1028.04
2017-12-21T00:06:19.748Z,1028
2017-12-21T00:07:00.261Z,1028.03
2017-12-21T00:07:40.791Z,1028.01
2017-12-21T00:08:21.326Z,1028
2017-12-21T00:09:01.860Z,1028.01
2017-12-21T00:09:42.392Z,1028.02
2017-12-21T00:10:22.919Z,1028
2017-12-21T00:11:03.471Z,1027.99
2017-12-21T00:11:43.986Z,1027.97
2017-12-21T00:12:24.510Z,1027.99
2017-12-21T00:13:05.040Z,1027.98
2017-12-21T00:13:45.564Z,1027.98
2017-12-21T00:14:26.090Z,1027.97
2017-12-21T00:15:06.610Z,1028.01
2017-12-21T00:15:47.138Z,1027.97
2017-12-21T00:16:27.675Z,1027.98
2017-12-21T00:17:08.221Z,1028.01
2017-12-21T00:17:48.747Z,1028.01
2017-12-21T00:18:29.265Z,1027.97
2017-12-21T00:19:09.793Z,1027.99
2017-12-21T00:19:50.328Z,1027.98
2017-12-21T00:20:30.849Z,1028
2017-12-21T00:21:11.404Z,1028.01
2017-12-21T00:21:51.937Z,1028.01
2017-12-21T00:22:32.446Z,1027.98
2017-12-21T00:23:12.963Z,1028.02
2017-12-21T00:23:53.490Z,1028.02
2017-12-21T00:24:34.031Z,1027.98
2017-12-21T00:25:14.535Z,1028.02
2017-12-21T00:25:55.075Z,1027.98
2017-12-21T00:26:35.608Z,1027.99
2017-12-21T00:27:16.121Z,1028.02
2017-12-21T00:27:56.641Z,1027.99
2017-12-21T00:28:37.161Z,1027.94
2017-12-21T00:29:17.685Z,1027.96
2017-12-21T00:29:58.226Z,1027.94
2017-12-21T00:30:38.758Z,1027.93
2017-12-21T00:31:19.276Z,1027.94
2017-12-21T00:31:59.808Z,1027.9
2017-12-21T00:32:40.335Z,1027.89
2017-12-21T00:33:20.852Z,1027.91
2017-12-21T00:34:01.380Z,1027.9
2017-12-21T00:34:41.911Z,1027.91
2017-12-21T00:35:22.441Z,1027.84
2017-12-21T00:36:02.981Z,1027.85
2017-12-21T00:36:43.502Z,1027.88
2017-12-21T00:37:24.031Z,1027.87
2017-12-21T00:38:04.565Z,1027.84
2017-12-21T00:38:45.084Z,1027.84
2017-12-21T00:39:25.608Z,1027.83
2017-12-21T00:40:06.138Z,1027.85
2017-12-21T00:40:46.688Z,1027.85
2017-12-21T00:41:27.222Z,1027.85
2017-12-21T00:42:07.764Z,1027.89
2017-12-21T00:42:48.291Z,1027.87
2017-12-21T00:43:28.821Z,1027.9
2017-12-21T00:44:09.334Z,1027.94
2017-12-21T00:44:49.871Z,1027.94
2017-12-21T00:45:30.395Z,1027.98
2017-12-21T00:46:10.927Z,1028
2017-12-21T00:46:51.457Z,1028.07
2017-12-21T00:47:31.986Z,1028.07
2017-12-21T00:48:12.529Z,1028.11
2017-12-21T00:48:53.054Z,1028.12
2017-12-21T00:49:33.609Z,1028.12
2017-12-21T00:50:14.146Z,1028.12
2017-12-21T00:50:54.744Z,1028.13
2017-12-21T00:51:35.228Z,1028.11
2017-12-21T00:52:15.756Z,1028.06
2017-12-21T00:52:56.288Z,1028.08
2017-12-21T00:53:36.820Z,1028.04
2017-12-21T00:54:17.340Z,1028.03
2017-12-21T00:54:57.867Z,1028.06
2017-12-21T00:55:38.408Z,1028.03
2017-12-21T00:56:18.942Z,1028.06
2017-12-21T00:56:59.480Z,1028.03
2017-12-21T00:57:39.986Z,1028.08
2017-12-21T00:58:20.518Z,1028.08
2017-12-21T00:59:01.054Z,1028.06
2017-12-21T00:59:41.582Z,1028.05
2017-12-21T01:00:22.166Z,1028.04
2017-12-21T01:01:02.695Z,1028.04
2017-12-21T01:01:43.216Z,1028.04
2017-12-21T01:02:23.738Z,1028.03
2017-12-21T01:03:04.261Z,1028.03
2017-12-21T01:03:44.795Z,1028.06
2017-12-21T01:04:25.333Z,1028.1
2017-12-21T01:05:05.866Z,1028.04
2017-12-21T01:05:46.393Z,1028.09
2017-12-21T01:06:26.916Z,1028.11
2017-12-21T01:07:07.455Z,1028.07
2017-12-21T01:07:47.958Z,1028.09
2017-12-21T01:08:28.476Z,1028.08
2017-12-21T01:09:09.008Z,1028.06
2017-12-21T01:09:49.514Z,1028.08
2017-12-21T01:10:30.029Z,1028.06
2017-12-21T01:11:10.567Z,1028.06
2017-12-21T01:11:51.098Z,1028.04
2017-12-21T01:12:31.612Z,1028.02
2017-12-21T01:13:12.141Z,1028.05
2017-12-21T01:13:52.759Z,1028.05
2017-12-21T01:14:33.270Z,1028.09
2017-12-21T01:15:13.804Z,1028.1
2017-12-21T01:15:54.342Z,1028.08
2017-12-21T01:16:34.860Z,1028.1
2017-12-21T01:17:15.371Z,1028.1
2017-12-21T01:17:55.896Z,1028.09
2017-12-21T01:18:36.415Z,1028.08
2017-12-21T01:19:16.951Z,1028.06
2017-12-21T01:19:57.484Z,1028.06
2017-12-21T01:20:38.017Z,1028.08
2017-12-21T01:21:18.547Z,1028.03
2017-12-21T01:21:59.079Z,1028.04
2017-12-21T01:22:39.614Z,1028.06
2017-12-21T01:23:20.145Z,1028.07
2017-12-21T01:24:00.659Z,1028.12
2017-12-21T01:24:41.186Z,1028.09
2017-12-21T01:25:21.703Z,1028.16
2017-12-21T01:26:02.225Z,1028.19
2017-12-21T01:26:42.762Z,1028.21
2017-12-21T01:27:23.296Z,1028.24
2017-12-21T01:28:03.827Z,1028.3
2017-12-21T01:28:44.370Z,1028.33
2017-12-21T01:29:24.905Z,1028.38
2017-12-21T01:30:05.444Z,1028.41
2017-12-21T01:30:45.973Z,1028.42
2017-12-21T01:31:26.495Z,1028.42
2017-12-21T01:32:07.036Z,1028.41
2017-12-21T01:32:47.564Z,1028.41
2017-12-21T01:33:28.094Z,1028.42
2017-12-21T01:34:08.620Z,1028.43
2017-12-21T01:34:49.145Z,1028.47
2017-12-21T01:35:29.678Z,1028.48
2017-12-21T01:36:10.220Z,1028.49
2017-12-21T01:36:50.764Z,1028.52
2017-12-21T01:37:31.297Z,1028.51
2017-12-21T01:38:11.826Z,1028.49
2017-12-21T01:38:52.344Z,1028.5
2017-12-21T01:39:32.876Z,1028.48
2017-12-21T01:40:13.408Z,1028.5
2017-12-21T01:40:53.931Z,1028.47
2017-12-21T01:41:34.458Z,1028.45
2017-12-21T01:42:14.990Z,1028.47
2017-12-21T01:42:55.549Z,1028.45
2017-12-21T01:43:36.079Z,1028.45
2017-12-21T01:44:16.618Z,1028.44
2017-12-21T01:44:57.147Z,1028.44
2017-12-21T01:45:37.669Z,1028.41
2017-12-21T01:46:18.200Z,1028.45
2017-12-21T01:46:58.744Z,1028.45
2017-12-21T01:47:39.268Z,1028.52
2017-12-21T01:48:19.781Z,1028.53
2017-12-21T01:49:00.321Z,1028.51
2017-12-21T01:49:40.849Z,1028.55
2017-12-21T01:50:21.386Z,1028.55
2017-12-21T01:51:01.894Z,1028.55
2017-12-21T01:51:42.420Z,1028.53
2017-12-21T01:52:22.950Z,1028.5
2017-12-21T01:53:03.480Z,1028.45
2017-12-21T01:53:43.999Z,1028.42
2017-12-21T01:54:24.526Z,1028.43
2017-12-21T01:55:05.059Z,1028.41
2017-12-21T01:55:45.596Z,1028.4
2017-12-21T01:56:26.148Z,1028.38
2017-12-21T01:57:06.692Z,1028.4
2017-12-21T01:57:47.224Z,1028.37
2017-12-21T01:58:27.728Z,1028.34
2017-12-21T01:59:08.258Z,1028.33
2017-12-21T01:59:48.802Z,1028.37
2017-12-21T02:00:29.327Z,1028.33
2017-12-21T02:01:09.857Z,1028.34
2017-12-21T02:01:50.386Z,1028.34
2017-12-21T02:02:30.908Z,1028.33
2017-12-21T02:03:11.441Z,1028.32
2017-12-21T02:03:51.972Z,1028.35
2017-12-21T02:04:32.491Z,1028.36
2017-12-21T02:05:13.024Z,1028.38
2017-12-21T02:05:53.557Z,1028.38
2017-12-21T02:06:34.095Z,1028.36
2017-12-21T02:07:14.624Z,1028.4
2017-12-21T02:07:55.144Z,1028.4
2017-12-21T02:08:35.667Z,1028.37
2017-12-21T02:09:16.195Z,1028.35
2017-12-21T02:09:56.835Z,1028.35
2017-12-21T02:10:37.314Z,1028.36
2017-12-21T02:11:17.832Z,1028.34
2017-12-21T02:11:58.358Z,1028.39
2017-12-21T02:12:38.880Z,1028.36
2017-12-21T02:13:19.407Z,1028.39
2017-12-21T02:13:59.932Z,1028.32
2017-12-21T02:14:40.469Z,1028.37
2017-12-21T02:15:20.987Z,1028.37
2017-12-21T02:16:01.514Z,1028.33
2017-12-21T02:16:42.064Z,1028.31
2017-12-21T02:17:22.583Z,1028.3
2017-12-21T02:18:03.119Z,1028.31
2017-12-21T02:18:43.635Z,1028.3
2017-12-21T02:19:24.164Z,1028.33
2017-12-21T02:20:04.702Z,1028.31
2017-12-21T02:20:45.213Z,1028.32
2017-12-21T02:21:25.747Z,1028.29
2017-12-21T02:22:06.268Z,1028.33
2017-12-21T02:22:46.798Z,1028.33
2017-12-21T02:23:27.325Z,1028.34
2017-12-21T02:24:07.875Z,1028.34
2017-12-21T02:24:48.406Z,1028.32
2017-12-21T02:25:28.934Z,1028.34
2017-12-21T02:26:09.462Z,1028.36
2017-12-21T02:26:49.988Z,1028.35
2017-12-21T02:27:30.537Z,1028.35
2017-12-21T02:28:11.061Z,1028.38
2017-12-21T02:28:51.595Z,1028.37
2017-12-21T02:29:32.120Z,1028.4
2017-12-21T02:30:12.647Z,1028.42
2017-12-21T02:30:53.186Z,1028.41
2017-12-21T02:31:33.714Z,1028.41
2017-12-21T02:32:14.243Z,1028.37
2017-12-21T02:32:54.815Z,1028.39
2017-12-21T02:33:35.344Z,1028.36
2017-12-21T02:34:15.862Z,1028.35
2017-12-21T02:34:56.395Z,1028.35
2017-12-21T02:35:36.927Z,1028.37
2017-12-21T02:36:17.445Z,1028.38
2017-12-21T02:36:57.982Z,1028.42
2017-12-21T02:37:38.517Z,1028.43
2017-12-21T02:38:19.046Z,1028.42
2017-12-21T02:38:59.568Z,1028.42
2017-12-21T02:39:40.095Z,1028.45
2017-12-21T02:40:20.615Z,1028.44
2017-12-21T02:41:01.139Z,1028.39
2017-12-21T02:41:41.667Z,1028.39
2017-12-21T02:42:22.188Z,1028.4
2017-12-21T02:43:02.708Z,1028.4
2017-12-21T02:43:43.297Z,1028.37
2017-12-21T02:44:23.840Z,1028.4
2017-12-21T02:45:04.372Z,1028.37
2017-12-21T02:45:44.900Z,1028.41
2017-12-21T02:46:25.427Z,1028.43
2017-12-21T02:47:05.951Z,1028.41
2017-12-21T02:47:46.483Z,1028.41
2017-12-21T02:48:27.011Z,1028.42
2017-12-21T02:49:07.525Z,1028.44
2017-12-21T02:49:48.052Z,1028.42
2017-12-21T02:50:28.595Z,1028.42
2017-12-21T02:51:09.130Z,1028.42
2017-12-21T02:51:49.671Z,1028.4
2017-12-21T02:52:30.190Z,1028.37
2017-12-21T02:53:10.716Z,1028.44
2017-12-21T02:53:51.255Z,1028.44
2017-12-21T02:54:31.774Z,1028.38
2017-12-21T02:55:12.312Z,1028.4
2017-12-21T02:55:52.860Z,1028.4
2017-12-21T02:56:33.402Z,1028.36
2017-12-21T02:57:13.930Z,1028.37
2017-12-21T02:57:54.457Z,1028.35
2017-12-21T02:58:34.987Z,1028.39
2017-12-21T02:59:15.522Z,1028.33
2017-12-21T02:59:56.041Z,1028.32
2017-12-21T03:00:36.559Z,1028.35
2017-12-21T03:01:17.103Z,1028.35
2017-12-21T03:01:57.630Z,1028.35
2017-12-21T03:02:38.167Z,1028.36
2017-12-21T03:03:18.678Z,1028.39
2017-12-21T03:03:59.217Z,1028.38
2017-12-21T03:04:39.741Z,1028.4
2017-12-21T03:05:20.266Z,1028.41
2017-12-21T03:06:00.797Z,1028.39
2017-12-21T03:06:41.321Z,1028.41
2017-12-21T03:07:21.849Z,1028.4
2017-12-21T03:08:02.383Z,1028.39
2017-12-21T03:08:42.953Z,1028.41
2017-12-21T03:09:23.487Z,1028.35
2017-12-21T03:10:04.012Z,1028.38
2017-12-21T03:10:44.538Z,1028.33
2017-12-21T03:11:25.053Z,1028.33
2017-12-21T03:12:05.580Z,1028.33
2017-12-21T03:12:46.090Z,1028.3
2017-12-21T03:13:26.624Z,1028.33
2017-12-21T03:14:07.153Z,1028.32
2017-12-21T03:14:47.678Z,1028.31
2017-12-21T03:15:28.215Z,1028.29
2017-12-21T03:16:08.723Z,1028.3
2017-12-21T03:16:49.248Z,1028.31
2017-12-21T03:17:29.778Z,1028.3
2017-12-21T03:18:10.319Z,1028.26
2017-12-21T03:18:50.829Z,1028.27
2017-12-21T03:19:31.371Z,1028.27
2017-12-21T03:20:11.906Z,1028.29
2017-12-21T03:20:52.431Z,1028.25
2017-12-21T03:21:32.965Z,1028.26
2017-12-21T03:22:13.493Z,1028.27
2017-12-21T03:22:54.023Z,1028.23
2017-12-21T03:23:34.556Z,1028.2
2017-12-21T03:24:15.059Z,1028.19
2017-12-21T03:24:55.596Z,1028.16
2017-12-21T03:25:36.129Z,1028.14
2017-12-21T03:26:16.655Z,1028.15
2017-12-21T03:26:57.206Z,1028.14
2017-12-21T03:27:37.732Z,1028.15
2017-12-21T03:28:18.248Z,1028.16
2017-12-21T03:28:58.776Z,1028.16
2017-12-21T03:29:39.320Z,1028.14
2017-12-21T03:30:19.858Z,1028.12
2017-12-21T03:31:00.385Z,1028.12
2017-12-21T03:31:40.900Z,1028.11
2017-12-21T03:32:21.429Z,1028.14
2017-12-21T03:33:01.959Z,1028.17
2017-12-21T03:33:42.488Z,1028.18
2017-12-21T03:34:23.008Z,1028.17
2017-12-21T03:35:03.531Z,1028.15
2017-12-21T03:35:44.067Z,1028.2
2017-12-21T03:36:24.578Z,1028.18
2017-12-21T03:37:05.101Z,1028.18
2017-12-21T03:37:45.634Z,1028.22
2017-12-21T03:38:26.167Z,1028.21
2017-12-21T03:39:06.693Z,1028.24
2017-12-21T03:39:47.215Z,1028.25
2017-12-21T03:40:27.753Z,1028.26
2017-12-21T03:41:08.282Z,1028.25
2017-12-21T03:41:48.820Z,1028.25
2017-12-21T03:42:29.348Z,1028.2
2017-12-21T03:43:09.888Z,1028.23
2017-12-21T03:43:50.404Z,1028.2
2017-12-21T03:44:30.954Z,1028.19
2017-12-21T03:45:11.484Z,1028.17
2017-12-21T03:45:52.016Z,1028.17
2017-12-21T03:46:32.548Z,1028.16
2017-12-21T03:47:13.077Z,1028.19
2017-12-21T03:47:53.606Z,1028.15
2017-12-21T03:48:34.131Z,1028.15
2017-12-21T03:49:14.687Z,1028.1
2017-12-21T03:49:55.217Z,1028.14
2017-12-21T03:50:35.749Z,1028.1
2017-12-21T03:51:16.265Z,1028.11
2017-12-21T03:51:56.788Z,1028.09
2017-12-21T03:52:37.325Z,1028.06
2017-12-21T03:53:17.857Z,1028.07
2017-12-21T03:53:58.388Z,1028.08
2017-12-21T03:54:38.950Z,1028.08
2017-12-21T03:55:19.486Z,1028.05
2017-12-21T03:56:00.014Z,1028.06
2017-12-21T03:56:40.543Z,1028.04
2017-12-21T03:57:21.084Z,1028.06
2017-12-21T03:58:01.609Z,1028.08
2017-12-21T03:58:42.144Z,1028.09
2017-12-21T03:59:22.670Z,1028.11
2017-12-21T04:00:03.197Z,1028.08
2017-12-21T04:00:43.733Z,1028.1
2017-12-21T04:01:24.277Z,1028.14
2017-12-21T04:02:04.813Z,1028.13
2017-12-21T04:02:45.321Z,1028.09
2017-12-21T04:03:25.864Z,1028.13
2017-12-21T04:04:06.391Z,1028.16
2017-12-21T04:04:46.930Z,1028.13
2017-12-21T04:05:27.476Z,1028.14
2017-12-21T04:06:07.995Z,1028.13
2017-12-21T04:06:48.521Z,1028.12
2017-12-21T04:07:29.044Z,1028.09
2017-12-21T04:08:09.575Z,1028.09
2017-12-21T04:08:50.104Z,1028.05
2017-12-21T04:09:30.690Z,1028.08
2017-12-21T04:10:11.233Z,1028.03
2017-12-21T04:10:51.776Z,1028.05
2017-12-21T04:11:32.294Z,1028.09
2017-12-21T04:12:12.808Z,1028.08
2017-12-21T04:12:53.342Z,1028.09
2017-12-21T04:13:33.873Z,1028.05
2017-12-21T04:14:14.406Z,1028.06
2017-12-21T04:14:54.937Z,1028
2017-12-21T04:15:35.464Z,1028.02
2017-12-21T04:16:16.001Z,1028.04
2017-12-21T04:16:56.538Z,1028
2017-12-21T04:17:37.071Z,1028.04
2017-12-21T04:18:17.605Z,1027.99
2017-12-21T04:18:58.184Z,1027.98
2017-12-21T04:19:38.659Z,1027.97
2017-12-21T04:20:19.188Z,1027.98
2017-12-21T04:20:59.731Z,1027.98
2017-12-21T04:21:40.266Z,1027.96
2017-12-21T04:22:20.842Z,1027.95
2017-12-21T04:23:01.379Z,1027.91
2017-12-21T04:23:41.911Z,1027.88
2017-12-21T04:24:22.441Z,1027.91
2017-12-21T04:25:02.968Z,1027.89
2017-12-21T04:25:43.501Z,1027.89
2017-12-21T04:26:24.024Z,1027.88
2017-12-21T04:27:04.542Z,1027.87
2017-12-21T04:27:45.074Z,1027.86
2017-12-21T04:28:25.609Z,1027.85
2017-12-21T04:29:06.134Z,1027.89
2017-12-21T04:29:46.674Z,1027.85
2017-12-21T04:30:27.204Z,1027.88
2017-12-21T04:31:07.721Z,1027.87
2017-12-21T04:31:48.247Z,1027.85
2017-12-21T04:32:28.793Z,1027.85
2017-12-21T04:33:09.325Z,1027.87
2017-12-21T04:33:49.835Z,1027.9
2017-12-21T04:34:30.368Z,1027.87
2017-12-21T04:35:10.900Z,1027.91
2017-12-21T04:35:51.435Z,1027.85
2017-12-21T04:36:31.964Z,1027.85
2017-12-21T04:37:12.493Z,1027.89
2017-12-21T04:37:53.020Z,1027.87
2017-12-21T04:38:33.553Z,1027.86
2017-12-21T04:39:14.092Z,1027.8
2017-12-21T04:39:54.614Z,1027.8
2017-12-21T04:40:35.134Z,1027.73
2017-12-21T04:41:15.677Z,1027.78
2017-12-21T04:41:56.211Z,1027.74
2017-12-21T04:42:36.748Z,1027.71
2017-12-21T04:43:17.283Z,1027.76
2017-12-21T04:43:57.827Z,1027.72
2017-12-21T04:44:38.350Z,1027.71
2017-12-21T04:45:18.876Z,1027.69
2017-12-21T04:45:59.398Z,1027.7
2017-12-21T04:46:39.935Z,1027.7
2017-12-21T04:47:20.450Z,1027.75
2017-12-21T04:48:00.978Z,1027.74
2017-12-21T04:48:41.508Z,1027.78
2017-12-21T04:49:22.042Z,1027.75
2017-12-21T04:50:02.578Z,1027.79
2017-12-21T04:50:43.102Z,1027.78
2017-12-21T04:51:23.659Z,1027.75
2017-12-21T04:52:04.180Z,1027.75
2017-12-21T04:52:44.710Z,1027.74
2017-12-21T04:53:25.249Z,1027.78
2017-12-21T04:54:05.754Z,1027.76
2017-12-21T04:54:46.283Z,1027.74
2017-12-21T04:55:26.846Z,1027.74
2017-12-21T04:56:07.389Z,1027.74
2017-12-21T04:56:47.915Z,1027.72
2017-12-21T04:57:28.442Z,1027.74
2017-12-21T04:58:08.983Z,1027.73
2017-12-21T04:58:49.503Z,1027.72
2017-12-21T04:59:30.040Z,1027.73
2017-12-21T05:00:10.575Z,1027.74
2017-12-21T05:00:51.159Z,1027.71
2017-12-21T05:01:31.660Z,1027.74
2017-12-21T05:02:12.196Z,1027.71
2017-12-21T05:02:52.701Z,1027.75
2017-12-21T05:03:33.239Z,1027.69
2017-12-21T05:04:13.770Z,1027.72
2017-12-21T05:04:54.309Z,1027.73
2017-12-21T05:05:34.844Z,1027.76
2017-12-21T05:06:15.368Z,1027.75
2017-12-21T05:06:55.898Z,1027.73
2017-12-21T05:07:36.534Z,1027.71
2017-12-21T05:08:17.101Z,1027.72
2017-12-21T05:08:57.630Z,1027.74
2017-12-21T05:09:38.216Z,1027.73
2017-12-21T05:10:18.742Z,1027.73
2017-12-21T05:10:59.278Z,1027.73
2017-12-21T05:11:39.979Z,1027.71
2017-12-21T05:12:20.597Z,1027.73
2017-12-21T05:13:01.122Z,1027.72
2017-12-21T05:13:41.656Z,1027.74
2017-12-21T05:14:22.187Z,1027.71
2017-12-21T05:15:02.708Z,1027.74
2017-12-21T05:15:43.240Z,1027.74
2017-12-21T05:16:23.890Z,1027.7
2017-12-21T05:17:04.426Z,1027.76
2017-12-21T05:17:44.959Z,1027.79
2017-12-21T05:18:25.486Z,1027.77
2017-12-21T05:19:06.047Z,1027.77
2017-12-21T05:19:46.571Z,1027.74
2017-12-21T05:20:27.094Z,1027.77
2017-12-21T05:21:07.687Z,1027.77
2017-12-21T05:21:48.232Z,1027.8
2017-12-21T05:22:28.760Z,1027.8
2017-12-21T05:23:09.286Z,1027.74
2017-12-21T05:23:49.821Z,1027.76
2017-12-21T05:24:30.361Z,1027.76
2017-12-21T05:25:10.868Z,1027.76
2017-12-21T05:25:51.404Z,1027.76
2017-12-21T05:26:32.122Z,1027.73
2017-12-21T05:27:12.650Z,1027.73
2017-12-21T05:27:53.302Z,1027.72
2017-12-21T05:28:33.790Z,1027.68
2017-12-21T05:29:14.401Z,1027.68
2017-12-21T05:29:54.929Z,1027.69
2017-12-21T05:30:35.911Z,1027.67
2017-12-21T05:31:16.526Z,1027.69
2017-12-21T05:31:57.056Z,1027.72
2017-12-21T05:32:37.613Z,1027.7
2017-12-21T05:33:18.220Z,1027.72
2017-12-21T05:33:58.752Z,1027.72
2017-12-21T05:34:39.278Z,1027.74
2017-12-21T05:35:19.809Z,1027.76
2017-12-21T05:36:00.375Z,1027.81
2017-12-21T05:36:40.957Z,1027.81
2017-12-21T05:37:21.484Z,1027.81
2017-12-21T05:38:02.020Z,1027.81
2017-12-21T05:38:42.646Z,1027.8
2017-12-21T05:39:23.319Z,1027.79
2017-12-21T05:40:03.841Z,1027.77
2017-12-21T05:40:44.360Z,1027.79
2017-12-21T05:41:24.904Z,1027.76
2017-12-21T05:42:05.549Z,1027.78
2017-12-21T05:42:46.071Z,1027.85
2017-12-21T05:43:26.607Z,1027.79
2017-12-21T05:44:07.135Z,1027.78
2017-12-21T05:44:47.645Z,1027.82
2017-12-21T05:45:28.192Z,1027.81
2017-12-21T05:46:08.719Z,1027.82
2017-12-21T05:46:49.236Z,1027.81
2017-12-21T05:47:29.757Z,1027.81
2017-12-21T05:48:10.292Z,1027.83
2017-12-21T05:48:50.829Z,1027.8
2017-12-21T05:49:31.356Z,1027.82
2017-12-21T05:50:11.887Z,1027.84
2017-12-21T05:50:52.419Z,1027.79
2017-12-21T05:51:32.928Z,1027.83
2017-12-21T05:52:13.458Z,1027.82
2017-12-21T05:52:53.993Z,1027.84
2017-12-21T05:53:34.518Z,1027.81
2017-12-21T05:54:15.052Z,1027.81
2017-12-21T05:54:55.587Z,1027.79
2017-12-21T05:55:36.110Z,1027.77
2017-12-21T05:56:16.642Z,1027.76
2017-12-21T05:56:57.175Z,1027.76
2017-12-21T05:57:37.719Z,1027.76
2017-12-21T05:58:18.265Z,1027.76
2017-12-21T05:58:58.801Z,1027.77
2017-12-21T05:59:39.334Z,1027.78
2017-12-21T06:00:19.849Z,1027.75
2017-12-21T06:01:00.400Z,1027.76
2017-12-21T06:01:40.916Z,1027.78
2017-12-21T06:02:21.447Z,1027.76
2017-12-21T06:03:01.981Z,1027.77
2017-12-21T06:03:42.516Z,1027.8
2017-12-21T06:04:23.039Z,1027.79
2017-12-21T06:05:03.615Z,1027.78
2017-12-21T06:05:44.136Z,1027.78
2017-12-21T06:06:24.680Z,1027.79
2017-12-21T06:07:05.220Z,1027.77
2017-12-21T06:07:45.866Z,1027.78
2017-12-21T06:08:26.654Z,1027.76
2017-12-21T06:09:07.339Z,1027.78
2017-12-21T06:09:47.867Z,1027.78
2017-12-21T06:10:28.433Z,1027.81
2017-12-21T06:11:09.036Z,1027.8
2017-12-21T06:11:49.573Z,1027.82
2017-12-21T06:12:30.073Z,1027.86
2017-12-21T06:13:10.595Z,1027.88
2017-12-21T06:13:51.112Z,1027.88
2017-12-21T06:14:31.675Z,1027.87
2017-12-21T06:15:12.215Z,1027.87
2017-12-21T06:15:52.717Z,1027.85
2017-12-21T06:16:33.229Z,1027.88
2017-12-21T06:17:13.760Z,1027.93
2017-12-21T06:17:54.252Z,1027.89
2017-12-21T06:18:34.778Z,1027.9
2017-12-21T06:19:15.308Z,1027.89
2017-12-21T06:19:55.841Z,1027.89
2017-12-21T06:20:36.354Z,1027.9
2017-12-21T06:21:16.883Z,1027.92
2017-12-21T06:21:57.413Z,1027.91
2017-12-21T06:22:37.977Z,1027.92
2017-12-21T06:23:18.555Z,1027.9
2017-12-21T06:23:59.080Z,1027.9
2017-12-21T06:24:39.620Z,1027.92
2017-12-21T06:25:20.169Z,1027.9
2017-12-21T06:26:00.699Z,1027.9
2017-12-21T06:26:41.210Z,1027.92
2017-12-21T06:27:21.726Z,1027.91
2017-12-21T06:28:02.258Z,1027.91
2017-12-21T06:28:42.798Z,1027.92
2017-12-21T06:29:23.315Z,1027.94
2017-12-21T06:30:03.864Z,1027.86
2017-12-21T06:30:44.395Z,1027.88
2017-12-21T06:31:24.918Z,1027.85
2017-12-21T06:32:05.457Z,1027.84
2017-12-21T06:32:45.982Z,1027.89
2017-12-21T06:33:26.514Z,1027.84
2017-12-21T06:34:07.030Z,1027.86
2017-12-21T06:34:47.567Z,1027.84
2017-12-21T06:35:28.101Z,1027.83
2017-12-21T06:36:08.619Z,1027.83
2017-12-21T06:36:49.149Z,1027.82
2017-12-21T06:37:29.691Z,1027.83
2017-12-21T06:38:10.218Z,1027.84
2017-12-21T06:38:50.717Z,1027.82
2017-12-21T06:39:31.247Z,1027.82
2017-12-21T06:40:11.776Z,1027.85
2017-12-21T06:40:52.296Z,1027.85
2017-12-21T06:41:32.833Z,1027.85
2017-12-21T06:42:13.417Z,1027.85
2017-12-21T06:42:53.934Z,1027.83
2017-12-21T06:43:34.467Z,1027.82
2017-12-21T06:44:14.995Z,1027.85
2017-12-21T06:44:55.518Z,1027.85
2017-12-21T06:45:36.045Z,1027.86
2017-12-21T06:46:16.571Z,1027.86
2017-12-21T06:46:57.103Z,1027.91
2017-12-21T06:47:37.636Z,1027.87
2017-12-21T06:48:18.162Z,1027.85
2017-12-21T06:48:58.715Z,1027.87
2017-12-21T06:49:39.232Z,1027.88
2017-12-21T06:50:19.750Z,1027.88
2017-12-21T06:51:00.276Z,1027.85
2017-12-21T06:51:40.923Z,1027.91
2017-12-21T06:52:21.539Z,1027.9
2017-12-21T06:53:02.055Z,1027.95
2017-12-21T06:53:42.584Z,1027.92
2017-12-21T06:54:23.099Z,1027.95
2017-12-21T06:55:03.640Z,1027.96
2017-12-21T06:55:44.170Z,1027.97
2017-12-21T06:56:24.696Z,1027.99
2017-12-21T06:57:05.224Z,1027.97
2017-12-21T06:57:45.747Z,1027.97
2017-12-21T06:58:26.278Z,1027.96
2017-12-21T06:59:06.788Z,1027.94
2017-12-21T06:59:47.304Z,1027.97
2017-12-21T07:00:27.867Z,1027.98
2017-12-21T07:01:08.365Z,1027.98
2017-12-21T07:01:48.887Z,1027.97
2017-12-21T07:02:29.431Z,1027.95
2017-12-21T07:03:09.948Z,1028.02
2017-12-21T07:03:50.499Z,1028.04
2017-12-21T07:04:31.018Z,1028
2017-12-21T07:05:11.541Z,1028.04
2017-12-21T07:05:52.064Z,1028.04
2017-12-21T07:06:32.601Z,1027.99
2017-12-21T07:07:13.126Z,1027.94
2017-12-21T07:07:53.687Z,1028.01
2017-12-21T07:08:34.177Z,1027.98
2017-12-21T07:09:14.676Z,1028
2017-12-21T07:09:55.194Z,1027.99
2017-12-21T07:10:35.736Z,1028.02
2017-12-21T07:11:16.272Z,1027.98
2017-12-21T07:11:56.800Z,1028.01
2017-12-21T07:12:37.341Z,1027.97
2017-12-21T07:13:17.848Z,1028.01
2017-12-21T07:13:58.384Z,1027.96
2017-12-21T07:14:38.907Z,1027.98
2017-12-21T07:15:19.444Z,1028
2017-12-21T07:15:59.970Z,1027.96
2017-12-21T07:16:40.495Z,1027.98
2017-12-21T07:17:20.995Z,1027.99
2017-12-21T07:18:01.519Z,1027.97
2017-12-21T07:18:42.070Z,1027.99
2017-12-21T07:19:22.608Z,1028
2017-12-21T07:20:03.217Z,1028.04
2017-12-21T07:20:43.749Z,1028.02
2017-12-21T07:21:24.284Z,1028.01
2017-12-21T07:22:04.791Z,1028.01
2017-12-21T07:22:45.315Z,1028.03
2017-12-21T07:23:25.828Z,1028.02
2017-12-21T07:24:06.352Z,1028.02
2017-12-21T07:24:46.873Z,1028.02
2017-12-21T07:25:27.412Z,1028.03
2017-12-21T07:26:07.935Z,1028.01
2017-12-21T07:26:48.506Z,1027.99
2017-12-21T07:27:29.028Z,1028
2017-12-21T07:28:09.547Z,1028.01
2017-12-21T07:28:50.067Z,1028
2017-12-21T07:29:30.600Z,1028.02
2017-12-21T07:30:11.128Z,1028.01
2017-12-21T07:30:51.654Z,1028.02
2017-12-21T07:31:32.177Z,1028.04
2017-12-21T07:32:12.702Z,1028.03
2017-12-21T07:32:53.222Z,1028.05
2017-12-21T07:33:33.755Z,1028.01
2017-12-21T07:34:14.284Z,1028
2017-12-21T07:34:54.818Z,1027.97
2017-12-21T07:35:35.343Z,1027.96
2017-12-21T07:36:15.882Z,1027.96
2017-12-21T07:36:56.441Z,1027.95
2017-12-21T07:37:36.964Z,1027.94
2017-12-21T07:38:17.492Z,1027.94
2017-12-21T07:38:58.019Z,1027.94
2017-12-21T07:39:38.552Z,1027.95
2017-12-21T07:40:19.170Z,1027.93
2017-12-21T07:40:59.716Z,1027.95
2017-12-21T07:41:40.268Z,1027.97
2017-12-21T07:42:20.787Z,1027.98
2017-12-21T07:43:01.305Z,1027.99
2017-12-21T07:43:41.827Z,1027.99
2017-12-21T07:44:22.349Z,1027.99
2017-12-21T07:45:02.879Z,1028
2017-12-21T07:45:43.411Z,1028.03
2017-12-21T07:46:23.946Z,1028.01
2017-12-21T07:47:04.488Z,1028.04
2017-12-21T07:47:45.018Z,1028.07
2017-12-21T07:48:25.534Z,1028.06
2017-12-21T07:49:06.067Z,1028.07
2017-12-21T07:49:46.595Z,1028.06
2017-12-21T07:50:27.130Z,1028.09
2017-12-21T07:51:07.658Z,1028.09
2017-12-21T07:51:48.171Z,1028.06
2017-12-21T07:52:28.711Z,1028.08
2017-12-21T07:53:09.224Z,1028.06
2017-12-21T07:53:49.737Z,1028.1
2017-12-21T07:54:30.270Z,1028.17
2017-12-21T07:55:10.806Z,1028.12
2017-12-21T07:55:51.329Z,1028.12
2017-12-21T07:56:31.842Z,1028.12
2017-12-21T07:57:12.369Z,1028.13
2017-12-21T07:57:52.894Z,1028.1
2017-12-21T07:58:33.429Z,1028.14
2017-12-21T07:59:13.958Z,1028.14
2017-12-21T07:59:54.471Z,1028.16
2017-12-21T08:00:35.004Z,1028.17
2017-12-21T08:01:15.531Z,1028.17
2017-12-21T08:01:56.077Z,1028.16
2017-12-21T08:02:36.587Z,1028.15
2017-12-21T08:03:17.131Z,1028.15
2017-12-21T08:03:57.650Z,1028.12
2017-12-21T08:04:38.185Z,1028.11
2017-12-21T08:05:18.697Z,1028.12
2017-12-21T08:05:59.221Z,1028.13
2017-12-21T08:06:39.760Z,1028.13
2017-12-21T08:07:20.291Z,1028.13
2017-12-21T08:08:00.826Z,1028.09
2017-12-21T08:08:41.347Z,1028.11
2017-12-21T08:09:21.870Z,1028.08
2017-12-21T08:10:02.389Z,1028.09
2017-12-21T08:10:42.915Z,1028.12
2017-12-21T08:11:23.430Z,1028.12
2017-12-21T08:12:03.958Z,1028.13